sensor_id;sensor_type;location;lat;lon;timestamp;pressure;altitude;pressure_sealevel;temperature;humidity
13954;BME280;7049;49.444;8.522;2023-02-03T00:01:35;79320.78;;;-3.47;90.22
13954;BME280;7049;49.444;8.522;2023-02-03T00:06:37;79322.88;;;-3.47;89.97
13954;BME280;7049;49.444;8.522;2023-02-03T00:11:40;79322.88;;;-3.47;90.04
13954;BME280;7049;49.444;8.522;2023-02-03T00:16:41;79318.69;;;-3.47;90.23
13954;BME280;7049;49.444;8.522;2023-02-03T00:21:43;79324.97;;;-3.47;90.31
13954;BME280;7049;49.444;8.522;2023-02-03T00:26:45;79312.41;;;-3.47;89.91
13954;BME280;7049;49.444;8.522;2023-02-03T00:31:47;79299.88;;;-3.47;89.68
13954;BME280;7049;49.444;8.522;2023-02-03T00:36:48;79320.78;;;-3.47;89.84
13954;BME280;7049;49.444;8.522;2023-02-03T00:41:51;79291.50;;;-3.47;89.53
13954;BME280;7049;49.444;8.522;2023-02-03T00:46:52;79291.50;;;-3.47;90.39
13954;BME280;7049;49.444;8.522;2023-02-03T00:51:54;79274.75;;;-3.47;90.51
13954;BME280;7049;49.444;8.522;2023-02-03T00:56:56;79291.50;;;-3.47;90.70
13954;BME280;7049;49.444;8.522;2023-02-03T01:01:58;79304.03;;;-3.47;91.22
13954;BME280;7049;49.444;8.522;2023-02-03T01:06:59;79320.78;;;-3.47;91.89
13954;BME280;7049;49.444;8.522;2023-02-03T01:12:02;79329.16;;;-3.47;92.30
13954;BME280;7049;49.444;8.522;2023-02-03T01:17:04;79335.44;;;-3.47;92.10
13954;BME280;7049;49.444;8.522;2023-02-03T01:22:06;79320.78;;;-3.47;91.88
13954;BME280;7049;49.444;8.522;2023-02-03T01:27:08;79293.59;;;-3.47;91.10
13954;BME280;7049;49.444;8.522;2023-02-03T01:32:10;79274.75;;;-3.47;91.13
13954;BME280;7049;49.444;8.522;2023-02-03T01:37:11;79253.81;;;-3.47;90.78
13954;BME280;7049;49.444;8.522;2023-02-03T01:42:15;79245.44;;;-3.47;90.79
13954;BME280;7049;49.444;8.522;2023-02-03T01:47:22;79232.88;;;-3.47;90.77
13954;BME280;7049;49.444;8.522;2023-02-03T01:52:25;79260.09;;;-3.47;91.14
13954;BME280;7049;49.444;8.522;2023-02-03T01:57:32;79266.38;;;-3.47;91.25
13954;BME280;7049;49.444;8.522;2023-02-03T02:02:35;79239.16;;;-3.47;91.33
13954;BME280;7049;49.444;8.522;2023-02-03T02:07:37;79264.28;;;-3.47;91.56
13954;BME280;7049;49.444;8.522;2023-02-03T02:12:41;79237.06;;;-3.47;91.80
13954;BME280;7049;49.444;8.522;2023-02-03T02:17:56;79247.53;;;-3.47;92.24
13954;BME280;7049;49.444;8.522;2023-02-03T02:23:35;79234.97;;;-3.47;92.60
13954;BME280;7049;49.444;8.522;2023-02-03T02:33:50;79237.06;;;-3.47;92.73
13954;BME280;7049;49.444;8.522;2023-02-03T02:38:58;79253.81;;;-3.47;93.49
13954;BME280;7049;49.444;8.522;2023-02-03T02:44:08;79245.44;;;-3.47;93.42
13954;BME280;7049;49.444;8.522;2023-02-03T02:49:13;79237.06;;;-3.47;92.86
13954;BME280;7049;49.444;8.522;2023-02-03T02:54:19;79243.34;;;-3.47;92.92
13954;BME280;7049;49.444;8.522;2023-02-03T02:59:22;79268.47;;;-3.47;93.67
13954;BME280;7049;49.444;8.522;2023-02-03T03:04:29;79272.66;;;-3.47;93.90
13954;BME280;7049;49.444;8.522;2023-02-03T03:09:35;79287.31;;;-3.47;94.54
13954;BME280;7049;49.444;8.522;2023-02-03T03:14:44;79291.50;;;-3.47;94.37
13954;BME280;7049;49.444;8.522;2023-02-03T03:19:52;79308.22;;;-3.47;94.71
13954;BME280;7049;49.444;8.522;2023-02-03T03:25:02;79335.44;;;-3.47;94.87
13954;BME280;7049;49.444;8.522;2023-02-03T03:30:10;79345.91;;;-3.47;95.50
13954;BME280;7049;49.444;8.522;2023-02-03T03:35:14;79341.72;;;-3.47;95.47
13954;BME280;7049;49.444;8.522;2023-02-03T03:40:20;79331.25;;;-3.47;95.44
13954;BME280;7049;49.444;8.522;2023-02-03T03:45:27;79316.59;;;-3.47;95.99
13954;BME280;7049;49.444;8.522;2023-02-03T03:50:36;79299.88;;;-3.47;96.63
13954;BME280;7049;49.444;8.522;2023-02-03T03:55:39;79295.66;;;-3.47;96.78
13954;BME280;7049;49.444;8.522;2023-02-03T04:00:42;79289.41;;;-3.47;97.69
13954;BME280;7049;49.444;8.522;2023-02-03T04:05:47;79295.66;;;-3.47;97.81
13954;BME280;7049;49.444;8.522;2023-02-03T04:10:48;79291.50;;;-3.47;98.40
13954;BME280;7049;49.444;8.522;2023-02-03T04:15:50;79293.59;;;-3.47;97.92
13954;BME280;7049;49.444;8.522;2023-02-03T04:20:52;79306.13;;;-3.47;98.40
13954;BME280;7049;49.444;8.522;2023-02-03T04:25:54;79295.66;;;-3.47;98.38
13954;BME280;7049;49.444;8.522;2023-02-03T04:30:59;79295.66;;;-3.47;98.29
13954;BME280;7049;49.444;8.522;2023-02-03T04:36:02;79289.41;;;-3.47;97.95
13954;BME280;7049;49.444;8.522;2023-02-03T04:41:03;79301.97;;;-3.47;97.08
13954;BME280;7049;49.444;8.522;2023-02-03T04:46:05;79295.66;;;-3.47;96.33
13954;BME280;7049;49.444;8.522;2023-02-03T04:51:08;79283.13;;;-3.47;94.80
13954;BME280;7049;49.444;8.522;2023-02-03T04:56:09;79274.75;;;-3.47;94.30
13954;BME280;7049;49.444;8.522;2023-02-03T05:01:11;79253.81;;;-3.47;93.55
13954;BME280;7049;49.444;8.522;2023-02-03T05:06:13;79262.19;;;-3.47;93.48
13954;BME280;7049;49.444;8.522;2023-02-03T05:11:15;79270.56;;;-3.47;93.32
13954;BME280;7049;49.444;8.522;2023-02-03T05:16:16;79255.91;;;-3.47;92.77
13954;BME280;7049;49.444;8.522;2023-02-03T05:21:19;79266.38;;;-3.47;92.82
13954;BME280;7049;49.444;8.522;2023-02-03T05:26:20;79266.38;;;-3.47;92.35
13954;BME280;7049;49.444;8.522;2023-02-03T05:31:22;79249.63;;;-3.47;92.14
13954;BME280;7049;49.444;8.522;2023-02-03T05:36:25;79272.66;;;-3.47;92.74
13954;BME280;7049;49.444;8.522;2023-02-03T05:41:26;79268.47;;;-3.47;92.86
13954;BME280;7049;49.444;8.522;2023-02-03T05:46:45;79278.94;;;-3.47;93.22
13954;BME280;7049;49.444;8.522;2023-02-03T05:51:49;79264.28;;;-3.47;92.89
13954;BME280;7049;49.444;8.522;2023-02-03T05:56:51;79264.28;;;-3.47;92.74
13954;BME280;7049;49.444;8.522;2023-02-03T06:01:52;79258.00;;;-3.47;92.58
13954;BME280;7049;49.444;8.522;2023-02-03T06:06:55;79258.00;;;-3.47;92.45
13954;BME280;7049;49.444;8.522;2023-02-03T06:11:56;79237.06;;;-3.47;92.42
13954;BME280;7049;49.444;8.522;2023-02-03T06:16:58;79241.25;;;-3.47;92.86
13954;BME280;7049;49.444;8.522;2023-02-03T06:22:01;79232.88;;;-3.47;92.76
13954;BME280;7049;49.444;8.522;2023-02-03T06:27:02;79228.69;;;-3.47;93.63
13954;BME280;7049;49.444;8.522;2023-02-03T06:32:03;79220.31;;;-3.47;93.70
13954;BME280;7049;49.444;8.522;2023-02-03T06:37:06;79232.88;;;-3.47;93.67
13954;BME280;7049;49.444;8.522;2023-02-03T06:42:08;79230.78;;;-3.47;93.63
13954;BME280;7049;49.444;8.522;2023-02-03T06:47:10;79234.97;;;-3.47;94.77
13954;BME280;7049;49.444;8.522;2023-02-03T06:52:12;79234.97;;;-3.47;95.36
13954;BME280;7049;49.444;8.522;2023-02-03T06:57:14;79245.44;;;-3.47;96.88
13954;BME280;7049;49.444;8.522;2023-02-03T07:02:16;79258.00;;;-3.47;98.89
13954;BME280;7049;49.444;8.522;2023-02-03T07:07:18;79272.66;;;-3.47;99.55
13954;BME280;7049;49.444;8.522;2023-02-03T07:12:20;79287.31;;;-3.47;100.00
13954;BME280;7049;49.444;8.522;2023-02-03T07:17:21;79308.22;;;-3.47;100.00
13954;BME280;7049;49.444;8.522;2023-02-03T07:22:24;79299.88;;;-3.47;100.00
13954;BME280;7049;49.444;8.522;2023-02-03T07:27:25;79314.50;;;-3.47;100.00
13954;BME280;7049;49.444;8.522;2023-02-03T07:32:28;79318.69;;;-3.47;100.00
13954;BME280;7049;49.444;8.522;2023-02-03T07:37:31;79318.69;;;-3.47;100.00
13954;BME280;7049;49.444;8.522;2023-02-03T07:42:33;79308.22;;;-3.47;99.54
13954;BME280;7049;49.444;8.522;2023-02-03T07:47:34;79312.41;;;-3.47;99.25
13954;BME280;7049;49.444;8.522;2023-02-03T07:52:37;79312.41;;;-3.47;99.04
13954;BME280;7049;49.444;8.522;2023-02-03T07:57:38;79316.59;;;-3.47;98.79
13954;BME280;7049;49.444;8.522;2023-02-03T08:02:42;79314.50;;;-3.47;98.61
13954;BME280;7049;49.444;8.522;2023-02-03T08:07:45;79301.97;;;-3.47;98.55
13954;BME280;7049;49.444;8.522;2023-02-03T08:12:47;79308.22;;;-3.47;98.78
13954;BME280;7049;49.444;8.522;2023-02-03T08:17:48;79320.78;;;-3.47;99.32
13954;BME280;7049;49.444;8.522;2023-02-03T08:22:51;79316.59;;;-3.47;99.09
13954;BME280;7049;49.444;8.522;2023-02-03T08:27:53;79318.69;;;-3.47;99.02
13954;BME280;7049;49.444;8.522;2023-02-03T08:32:54;79320.78;;;-3.47;97.59
13954;BME280;7049;49.444;8.522;2023-02-03T08:37:57;79299.88;;;-3.47;95.80
13954;BME280;7049;49.444;8.522;2023-02-03T08:42:58;79291.50;;;-3.47;95.17
13954;BME280;7049;49.444;8.522;2023-02-03T08:48:00;79268.47;;;-3.47;93.46
13954;BME280;7049;49.444;8.522;2023-02-03T08:53:02;79255.91;;;-3.47;92.70
13954;BME280;7049;49.444;8.522;2023-02-03T08:58:04;79262.19;;;-3.47;93.08
13954;BME280;7049;49.444;8.522;2023-02-03T09:03:06;79249.63;;;-3.47;92.98
13954;BME280;7049;49.444;8.522;2023-02-03T09:08:08;79241.25;;;-3.47;92.20
13954;BME280;7049;49.444;8.522;2023-02-03T09:13:10;79243.34;;;-3.47;91.83
13954;BME280;7049;49.444;8.522;2023-02-03T09:18:11;79226.59;;;-3.47;91.31
13954;BME280;7049;49.444;8.522;2023-02-03T09:23:14;79216.13;;;-3.47;91.66
13954;BME280;7049;49.444;8.522;2023-02-03T09:28:16;79205.66;;;-3.47;91.92
13954;BME280;7049;49.444;8.522;2023-02-03T09:33:17;79214.03;;;-3.47;92.54
13954;BME280;7049;49.444;8.522;2023-02-03T09:38:20;79216.13;;;-3.47;93.49
13954;BME280;7049;49.444;8.522;2023-02-03T09:43:30;79216.13;;;-3.47;94.09
13954;BME280;7049;49.444;8.522;2023-02-03T09:48:37;79226.59;;;-3.47;94.38
13954;BME280;7049;49.444;8.522;2023-02-03T09:53:45;79226.59;;;-3.47;94.63
13954;BME280;7049;49.444;8.522;2023-02-03T09:58:48;79220.31;;;-3.47;94.71
13954;BME280;7049;49.444;8.522;2023-02-03T10:03:52;79195.19;;;-3.47;94.84
13954;BME280;7049;49.444;8.522;2023-02-03T10:09:15;79218.22;;;-3.47;95.20
13954;BME280;7049;49.444;8.522;2023-02-03T10:14:31;79239.16;;;-3.47;95.76
13954;BME280;7049;49.444;8.522;2023-02-03T10:19:41;79224.50;;;-3.47;96.01
13954;BME280;7049;49.444;8.522;2023-02-03T10:24:48;79214.03;;;-3.47;95.22
13954;BME280;7049;49.444;8.522;2023-02-03T10:29:56;79193.09;;;-3.47;94.98
13954;BME280;7049;49.444;8.522;2023-02-03T10:34:59;79201.47;;;-3.47;95.57
13954;BME280;7049;49.444;8.522;2023-02-03T10:40:04;79184.72;;;-3.47;95.90
13954;BME280;7049;49.444;8.522;2023-02-03T10:45:09;79170.06;;;-3.47;94.79
13954;BME280;7049;49.444;8.522;2023-02-03T10:50:14;79170.06;;;-3.47;92.54
13954;BME280;7049;49.444;8.522;2023-02-03T10:55:30;79147.06;;;-3.47;91.30
13954;BME280;7049;49.444;8.522;2023-02-03T11:00:33;79132.41;;;-3.47;91.08
13954;BME280;7049;49.444;8.522;2023-02-03T11:05:35;79124.03;;;-3.47;91.28
13954;BME280;7049;49.444;8.522;2023-02-03T11:10:38;79117.75;;;-3.47;92.44
13954;BME280;7049;49.444;8.522;2023-02-03T11:15:54;79124.03;;;-3.47;92.62
13954;BME280;7049;49.444;8.522;2023-02-03T11:20:57;79134.50;;;-3.47;93.17
13954;BME280;7049;49.444;8.522;2023-02-03T11:26:08;79113.56;;;-3.47;91.14
13954;BME280;7049;49.444;8.522;2023-02-03T11:31:16;79107.28;;;-3.47;88.50
13954;BME280;7049;49.444;8.522;2023-02-03T11:36:19;79111.47;;;-3.47;87.26
13954;BME280;7049;49.444;8.522;2023-02-03T11:41:21;79128.22;;;-3.47;87.20
13954;BME280;7049;49.444;8.522;2023-02-03T11:46:23;79134.50;;;-3.47;86.62
13954;BME280;7049;49.444;8.522;2023-02-03T11:51:31;79138.69;;;-3.47;86.86
13954;BME280;7049;49.444;8.522;2023-02-03T11:56:53;79136.59;;;-3.47;86.26
13954;BME280;7049;49.444;8.522;2023-02-03T12:02:14;79136.59;;;-3.47;86.43
13954;BME280;7049;49.444;8.522;2023-02-03T12:07:43;79103.09;;;-3.47;85.58
13954;BME280;7049;49.444;8.522;2023-02-03T12:12:57;79103.09;;;-3.47;85.77
13954;BME280;7049;49.444;8.522;2023-02-03T12:18:18;79077.97;;;-3.47;85.46
13954;BME280;7049;49.444;8.522;2023-02-03T12:23:32;79073.78;;;-3.47;85.66
13954;BME280;7049;49.444;8.522;2023-02-03T12:28:45;79059.13;;;-3.47;85.82
13954;BME280;7049;49.444;8.522;2023-02-03T12:33:55;79029.81;;;-3.47;85.55
13954;BME280;7049;49.444;8.522;2023-02-03T12:39:01;79044.47;;;-3.47;85.43
13954;BME280;7049;49.444;8.522;2023-02-03T12:44:15;79048.66;;;-3.47;86.25
13954;BME280;7049;49.444;8.522;2023-02-03T12:49:28;79046.56;;;-3.47;85.94
13954;BME280;7049;49.444;8.522;2023-02-03T12:54:37;79048.66;;;-3.47;86.89
13954;BME280;7049;49.444;8.522;2023-02-03T12:59:43;79015.19;;;-3.47;86.04
13954;BME280;7049;49.444;8.522;2023-02-03T13:04:50;78981.69;;;-3.47;86.36
13954;BME280;7049;49.444;8.522;2023-02-03T13:09:56;78964.94;;;-3.47;85.31
13954;BME280;7049;49.444;8.522;2023-02-03T13:15:09;78948.19;;;-3.47;84.88
13954;BME280;7049;49.444;8.522;2023-02-03T13:20:18;78967.03;;;-3.47;85.20
13954;BME280;7049;49.444;8.522;2023-02-03T13:25:23;78967.03;;;-3.47;85.17
13954;BME280;7049;49.444;8.522;2023-02-03T13:30:42;78952.38;;;-3.47;84.48
13954;BME280;7049;49.444;8.522;2023-02-03T13:35:54;78973.31;;;-3.47;85.26
13954;BME280;7049;49.444;8.522;2023-02-03T13:41:06;78975.41;;;-3.47;84.86
13954;BME280;7049;49.444;8.522;2023-02-03T13:46:19;78967.03;;;-3.47;84.99
13954;BME280;7049;49.444;8.522;2023-02-03T13:51:24;78962.84;;;-3.47;85.26
13954;BME280;7049;49.444;8.522;2023-02-03T13:56:33;78956.56;;;-3.47;84.90
13954;BME280;7049;49.444;8.522;2023-02-03T14:01:37;78946.09;;;-3.47;84.96
13954;BME280;7049;49.444;8.522;2023-02-03T14:06:58;78969.13;;;-3.47;84.46
13954;BME280;7049;49.444;8.522;2023-02-03T14:12:31;78985.88;;;-3.47;84.61
13954;BME280;7049;49.444;8.522;2023-02-03T14:23:37;79017.25;;;-3.47;85.59
13954;BME280;7049;49.444;8.522;2023-02-03T14:28:41;79008.91;;;-3.47;85.28
13954;BME280;7049;49.444;8.522;2023-02-03T14:34:02;79006.81;;;-3.47;85.51
13954;BME280;7049;49.444;8.522;2023-02-03T14:39:47;78998.44;;;-3.47;85.58
13954;BME280;7049;49.444;8.522;2023-02-03T14:45:05;78994.25;;;-3.47;85.78
13954;BME280;7049;49.444;8.522;2023-02-03T14:50:25;78983.78;;;-3.47;85.65
13954;BME280;7049;49.444;8.522;2023-02-03T14:55:38;78981.69;;;-3.47;86.41
13954;BME280;7049;49.444;8.522;2023-02-03T15:00:42;78985.88;;;-3.47;86.08
13954;BME280;7049;49.444;8.522;2023-02-03T15:05:45;78979.59;;;-3.47;86.63
13954;BME280;7049;49.444;8.522;2023-02-03T15:10:48;78969.13;;;-3.47;86.65
13954;BME280;7049;49.444;8.522;2023-02-03T15:15:51;78973.31;;;-3.47;87.25
13954;BME280;7049;49.444;8.522;2023-02-03T15:20:54;78996.34;;;-3.47;88.00
13954;BME280;7049;49.444;8.522;2023-02-03T15:25:58;78985.88;;;-3.47;88.40
13954;BME280;7049;49.444;8.522;2023-02-03T15:31:03;78985.88;;;-3.47;88.42
13954;BME280;7049;49.444;8.522;2023-02-03T15:36:12;78973.31;;;-3.47;88.85
13954;BME280;7049;49.444;8.522;2023-02-03T15:41:21;78983.78;;;-3.47;89.02
13954;BME280;7049;49.444;8.522;2023-02-03T15:46:26;78985.88;;;-3.47;89.99
13954;BME280;7049;49.444;8.522;2023-02-03T15:51:33;79002.63;;;-3.47;90.77
13954;BME280;7049;49.444;8.522;2023-02-03T15:56:40;79000.53;;;-3.47;91.12
13954;BME280;7049;49.444;8.522;2023-02-03T16:01:43;79034.00;;;-3.47;91.54
13954;BME280;7049;49.444;8.522;2023-02-03T16:06:47;79034.00;;;-3.47;91.87
13954;BME280;7049;49.444;8.522;2023-02-03T16:12:01;79025.63;;;-3.47;92.00
13954;BME280;7049;49.444;8.522;2023-02-03T16:17:05;79023.53;;;-3.47;92.43
13954;BME280;7049;49.444;8.522;2023-02-03T16:22:25;79025.63;;;-3.47;92.46
13954;BME280;7049;49.444;8.522;2023-02-03T16:27:32;79046.56;;;-3.47;92.87
13954;BME280;7049;49.444;8.522;2023-02-03T16:32:33;79050.75;;;-3.47;93.04
13954;BME280;7049;49.444;8.522;2023-02-03T16:37:52;79054.94;;;-3.47;92.74
13954;BME280;7049;49.444;8.522;2023-02-03T16:43:14;79063.31;;;-3.47;92.81
13954;BME280;7049;49.444;8.522;2023-02-03T16:48:33;79067.50;;;-3.47;92.74
13954;BME280;7049;49.444;8.522;2023-02-03T16:53:52;79069.59;;;-3.47;93.04
13954;BME280;7049;49.444;8.522;2023-02-03T16:58:55;79077.97;;;-3.47;93.19
13954;BME280;7049;49.444;8.522;2023-02-03T17:03:56;79073.78;;;-3.47;93.17
13954;BME280;7049;49.444;8.522;2023-02-03T17:08:58;79073.78;;;-3.47;93.84
13954;BME280;7049;49.444;8.522;2023-02-03T17:14:01;79069.59;;;-3.47;94.46
13954;BME280;7049;49.444;8.522;2023-02-03T17:19:02;79082.16;;;-3.47;96.06
13954;BME280;7049;49.444;8.522;2023-02-03T17:24:04;79090.53;;;-3.47;97.21
13954;BME280;7049;49.444;8.522;2023-02-03T17:29:08;79094.72;;;-3.47;96.79
13954;BME280;7049;49.444;8.522;2023-02-03T17:34:10;79107.28;;;-3.47;98.00
13954;BME280;7049;49.444;8.522;2023-02-03T17:39:11;79101.00;;;-3.47;98.24
13954;BME280;7049;49.444;8.522;2023-02-03T17:44:14;79115.66;;;-3.47;98.60
13954;BME280;7049;49.444;8.522;2023-02-03T17:49:15;79103.09;;;-3.47;98.90
13954;BME280;7049;49.444;8.522;2023-02-03T17:54:17;79090.53;;;-3.47;97.68
13954;BME280;7049;49.444;8.522;2023-02-03T17:59:20;79084.25;;;-3.47;97.51
13954;BME280;7049;49.444;8.522;2023-02-03T18:04:21;79086.34;;;-3.47;97.24
13954;BME280;7049;49.444;8.522;2023-02-03T18:09:23;79094.72;;;-3.47;97.29
13954;BME280;7049;49.444;8.522;2023-02-03T18:14:25;79090.53;;;-3.47;97.43
13954;BME280;7049;49.444;8.522;2023-02-03T18:19:27;79094.72;;;-3.47;97.02
13954;BME280;7049;49.444;8.522;2023-02-03T18:24:28;79103.09;;;-3.47;97.48
13954;BME280;7049;49.444;8.522;2023-02-03T18:29:31;79090.53;;;-3.47;97.22
13954;BME280;7049;49.444;8.522;2023-02-03T18:34:33;79088.44;;;-3.47;97.03
13954;BME280;7049;49.444;8.522;2023-02-03T18:39:34;79098.91;;;-3.47;97.42
13954;BME280;7049;49.444;8.522;2023-02-03T18:44:37;79101.00;;;-3.47;97.38
13954;BME280;7049;49.444;8.522;2023-02-03T18:49:40;79090.53;;;-3.47;96.96
13954;BME280;7049;49.444;8.522;2023-02-03T18:54:41;79092.63;;;-3.47;97.13
13954;BME280;7049;49.444;8.522;2023-02-03T18:59:44;79090.53;;;-3.47;97.04
13954;BME280;7049;49.444;8.522;2023-02-03T19:04:45;79103.09;;;-3.47;97.17
13954;BME280;7049;49.444;8.522;2023-02-03T19:09:47;79103.09;;;-3.47;97.62
13954;BME280;7049;49.444;8.522;2023-02-03T19:14:50;79111.47;;;-3.47;98.18
13954;BME280;7049;49.444;8.522;2023-02-03T19:19:51;79128.22;;;-3.47;98.40
13954;BME280;7049;49.444;8.522;2023-02-03T19:24:52;79132.41;;;-3.47;98.19
13954;BME280;7049;49.444;8.522;2023-02-03T19:29:56;79136.59;;;-3.47;97.91
13954;BME280;7049;49.444;8.522;2023-02-03T19:34:57;79134.50;;;-3.47;97.65
13954;BME280;7049;49.444;8.522;2023-02-03T19:39:59;79128.22;;;-3.47;97.63
13954;BME280;7049;49.444;8.522;2023-02-03T19:45:02;79121.94;;;-3.47;96.83
13954;BME280;7049;49.444;8.522;2023-02-03T19:50:04;79117.75;;;-3.47;96.18
13954;BME280;7049;49.444;8.522;2023-02-03T19:55:06;79124.03;;;-3.47;95.96
13954;BME280;7049;49.444;8.522;2023-02-03T20:00:10;79130.31;;;-3.47;96.39
13954;BME280;7049;49.444;8.522;2023-02-03T20:05:13;79117.75;;;-3.47;95.73
13954;BME280;7049;49.444;8.522;2023-02-03T20:10:16;79098.91;;;-3.47;95.05
13954;BME280;7049;49.444;8.522;2023-02-03T20:15:20;79111.47;;;-3.47;95.00
13954;BME280;7049;49.444;8.522;2023-02-03T20:20:22;79113.56;;;-3.47;95.19
13954;BME280;7049;49.444;8.522;2023-02-03T20:25:23;79105.19;;;-3.47;94.87
13954;BME280;7049;49.444;8.522;2023-02-03T20:30:26;79107.28;;;-3.47;94.62
13954;BME280;7049;49.444;8.522;2023-02-03T20:35:28;79101.00;;;-3.47;94.37
13954;BME280;7049;49.444;8.522;2023-02-03T20:40:30;79111.47;;;-3.47;94.19
13954;BME280;7049;49.444;8.522;2023-02-03T20:45:32;79111.47;;;-3.47;93.70
13954;BME280;7049;49.444;8.522;2023-02-03T20:50:34;79109.38;;;-3.47;93.90
13954;BME280;7049;49.444;8.522;2023-02-03T20:55:36;79105.19;;;-3.47;93.54
13954;BME280;7049;49.444;8.522;2023-02-03T21:00:38;79107.28;;;-3.47;93.34
13954;BME280;7049;49.444;8.522;2023-02-03T21:05:42;79119.84;;;-3.47;94.03
13954;BME280;7049;49.444;8.522;2023-02-03T21:10:45;79144.97;;;-3.47;94.44
13954;BME280;7049;49.444;8.522;2023-02-03T21:15:49;79151.22;;;-3.47;95.09
13954;BME280;7049;49.444;8.522;2023-02-03T21:20:51;79149.13;;;-3.47;95.39
13954;BME280;7049;49.444;8.522;2023-02-03T21:25:53;79147.06;;;-3.47;95.17
13954;BME280;7049;49.444;8.522;2023-02-03T21:30:56;79161.69;;;-3.47;95.40
13954;BME280;7049;49.444;8.522;2023-02-03T21:35:58;79165.88;;;-3.47;95.89
13954;BME280;7049;49.444;8.522;2023-02-03T21:41:00;79165.88;;;-3.47;95.56
13954;BME280;7049;49.444;8.522;2023-02-03T21:46:03;79165.88;;;-3.47;95.69
13954;BME280;7049;49.444;8.522;2023-02-03T21:51:13;79161.69;;;-3.47;96.36
13954;BME280;7049;49.444;8.522;2023-02-03T21:56:18;79167.97;;;-3.47;96.60
13954;BME280;7049;49.444;8.522;2023-02-03T22:01:22;79161.69;;;-3.47;96.41
13954;BME280;7049;49.444;8.522;2023-02-03T22:06:26;79153.31;;;-3.47;96.20
13954;BME280;7049;49.444;8.522;2023-02-03T22:11:29;79149.13;;;-3.47;95.56
13954;BME280;7049;49.444;8.522;2023-02-03T22:16:33;79157.50;;;-3.47;95.23
13954;BME280;7049;49.444;8.522;2023-02-03T22:21:35;79161.69;;;-3.47;94.88
13954;BME280;7049;49.444;8.522;2023-02-03T22:26:37;79165.88;;;-3.47;95.17
13954;BME280;7049;49.444;8.522;2023-02-03T22:31:40;79180.53;;;-3.47;95.23
13954;BME280;7049;49.444;8.522;2023-02-03T22:36:42;79186.81;;;-3.47;95.30
13954;BME280;7049;49.444;8.522;2023-02-03T22:41:43;79178.44;;;-3.47;95.07
13954;BME280;7049;49.444;8.522;2023-02-03T22:46:46;79182.63;;;-3.47;95.10
13954;BME280;7049;49.444;8.522;2023-02-03T22:51:47;79193.09;;;-3.47;95.56
13954;BME280;7049;49.444;8.522;2023-02-03T22:56:49;79201.47;;;-3.47;95.65
13954;BME280;7049;49.444;8.522;2023-02-03T23:01:51;79207.75;;;-3.47;95.88
13954;BME280;7049;49.444;8.522;2023-02-03T23:06:53;79214.03;;;-3.47;96.20
13954;BME280;7049;49.444;8.522;2023-02-03T23:11:54;79224.50;;;-3.47;96.37
13954;BME280;7049;49.444;8.522;2023-02-03T23:16:57;79220.31;;;-3.47;96.63
13954;BME280;7049;49.444;8.522;2023-02-03T23:21:58;79232.88;;;-3.47;96.21
13954;BME280;7049;49.444;8.522;2023-02-03T23:27:00;79234.97;;;-3.47;96.02
13954;BME280;7049;49.444;8.522;2023-02-03T23:32:03;79230.78;;;-3.47;95.82
13954;BME280;7049;49.444;8.522;2023-02-03T23:37:05;79228.69;;;-3.47;95.92
13954;BME280;7049;49.444;8.522;2023-02-03T23:42:07;79226.59;;;-3.47;95.72
13954;BME280;7049;49.444;8.522;2023-02-03T23:47:10;79239.16;;;-3.47;95.67
13954;BME280;7049;49.444;8.522;2023-02-03T23:52:11;79249.63;;;-3.47;95.79
13954;BME280;7049;49.444;8.522;2023-02-03T23:57:13;79255.91;;;-3.47;95.75
